KCNY/CNY METAR and TAF weather

Enter ICAO airport designator
Station Type Date Time Source
KCNY METAR 2020/01/18 20:53 UTC NOAA

KCNY 182053Z AUTO 32008KT 10SM CLR M01/M06 A3044 RMK AO2 SLP345 T10111056 57009


Station Type Date Time Source
KCNY Decoded METAR 2020/01/18 20:53 UTC NOAA

MOAB CANYONLANDS FIELD, UT, United States (KCNY) 38-46N 109-45W 1390M
Jan 18, 2020 - 03:53 PM EST / 2020.01.18 2053 UTC
Wind: from the NW (320 degrees) at 9 MPH (8 KT):0
Visibility: 10 mile(s):0
Sky conditions: clear
Temperature: 30.0 F (-1.1 C)
Windchill: 21 F (-6 C):1
Dew Point: 21.9 F (-5.6 C)
Relative Humidity: 71%
Pressure (altimeter): 30.44 in. Hg (1030 hPa)
Pressure tendency: 0.03 inches (0.9 hPa) lower than three hours ago
ob: KCNY 182053Z AUTO 32008KT 10SM CLR M01/M06 A3044 RMK AO2 SLP345 T10111056 57009
cycle: 21

Station Type Date Time Source
KCNY TAF 2020/01/18 18:34 UTC NOAA

TAF KCNY 181731Z 1818/1918 14008KT P6SM FEW120 SCT150
FM182300 VRB03KT P6SM FEW120 SCT200
FM191200 VRB03KT P6SM FEW250

Example: see airport list